Time;durP1;ratioP1;P1;durP2;ratioP2;P2;SDS_P1;SDS_P2;PMS_P1;PMS_P2;Temp;Humidity;BMP_temperature;BMP_pressure;BME280_temperature;BME280_humidity;BME280_pressure;Samples;Min_cycle;Max_cycle;Signal;HPM_P1;HPM_P2
2023/01/17 00:01:08;;;;;;;2.03;0.25;;;;;;;18.35;36.10;98493.66;16127858;19;129064;-51
2023/01/17 00:12:10;;;;;;;1.25;0.30;;;;;;;18.23;36.51;98508.81;16132332;19;129733;-48
2023/01/17 00:17:31;;;;;;;1.23;0.30;;;;;;;18.21;36.41;98499.16;16129632;19;129022;-50
2023/01/17 01:35:52;;;;;;;0.90;0.35;;;;;;;17.79;36.85;98581.94;16127245;19;130501;-53
2023/01/17 01:41:15;;;;;;;0.73;0.10;;;;;;;17.77;36.67;98600.81;16127211;19;129791;-55
2023/01/17 01:46:40;;;;;;;1.10;0.20;;;;;;;17.76;36.55;98608.25;16124383;19;129009;-51
2023/01/17 01:52:05;;;;;;;0.55;0.30;;;;;;;17.75;36.52;98611.34;16125434;19;129065;-55
2023/01/17 01:57:33;;;;;;;0.73;0.20;;;;;;;17.74;36.78;98626.28;16122279;19;129317;-49
2023/01/17 02:02:59;;;;;;;1.00;0.20;;;;;;;17.73;36.73;98633.72;16120390;19;130695;-49
2023/01/17 02:08:22;;;;;;;0.93;0.20;;;;;;;17.71;36.95;98638.75;16120729;19;129176;-51
2023/01/17 02:13:44;;;;;;;0.55;0.15;;;;;;;17.69;36.73;98643.75;16120394;19;129517;-48
2023/01/17 02:19:33;;;;;;;0.95;0.30;;;;;;;17.68;36.59;98656.75;16119549;19;129528;-47
2023/01/17 02:25:21;;;;;;;0.55;0.20;;;;;;;17.66;36.89;98660.94;16119417;19;131733;-49
2023/01/17 02:30:53;;;;;;;1.17;0.20;;;;;;;17.64;36.63;98669.53;16122048;19;129702;-47
2023/01/17 02:36:21;;;;;;;0.68;0.13;;;;;;;17.61;36.66;98669.28;16116843;19;129497;-47
2023/01/17 02:41:48;;;;;;;1.13;0.35;;;;;;;17.59;37.02;98666.81;16118795;19;129537;-48
2023/01/17 02:47:25;;;;;;;0.65;0.13;;;;;;;17.59;36.82;98660.47;16121299;19;132715;-47
2023/01/17 02:53:07;;;;;;;0.38;0.20;;;;;;;17.57;37.00;98665.47;16119104;19;130945;-49
2023/01/17 02:58:48;;;;;;;0.10;0.10;;;;;;;17.55;36.86;98660.22;16116242;19;131648;-49
2023/01/17 03:04:40;;;;;;;0.10;0.10;;;;;;;17.53;37.21;98652.19;16117446;19;130877;-50
2023/01/17 03:10:04;;;;;;;0.22;0.10;;;;;;;17.51;36.73;98654.44;16117464;19;129508;-47
2023/01/17 03:15:26;;;;;;;0.10;0.10;;;;;;;17.52;37.15;98655.28;16115664;19;129839;-49
2023/01/17 03:20:48;;;;;;;0.65;0.30;;;;;;;17.50;37.17;98654.72;16118990;19;128879;-47
2023/01/17 03:26:10;;;;;;;0.20;0.10;;;;;;;17.49;37.26;98653.91;16118888;19;129972;-48
2023/01/17 03:31:31;;;;;;;0.40;0.20;;;;;;;17.48;36.88;98643.16;16115687;19;129779;-47
2023/01/17 03:36:53;;;;;;;0.20;0.10;;;;;;;17.47;37.19;98647.03;16128388;19;128989;-49
2023/01/17 03:42:15;;;;;;;0.20;0.10;;;;;;;17.45;37.14;98652.03;16128966;19;129444;-47
2023/01/17 03:47:37;;;;;;;0.20;0.10;;;;;;;17.44;37.06;98642.91;16131600;19;130041;-48
2023/01/17 03:52:58;;;;;;;0.50;0.10;;;;;;;17.42;37.15;98645.16;16132748;19;129840;-47
2023/01/17 03:58:20;;;;;;;0.38;0.22;;;;;;;17.42;37.33;98641.53;16128968;19;129588;-48
2023/01/17 04:03:42;;;;;;;0.30;0.10;;;;;;;17.41;37.06;98634.41;16128953;19;129900;-50
2023/01/17 04:09:04;;;;;;;0.50;0.20;;;;;;;17.39;37.27;98635.50;16130338;19;131296;-47
2023/01/17 04:14:25;;;;;;;0.17;0.10;;;;;;;17.37;37.32;98637.75;16130154;19;130365;-65
2023/01/17 04:19:47;;;;;;;0.50;0.20;;;;;;;17.36;37.06;98638.00;16129847;19;129576;-58
2023/01/17 04:25:09;;;;;;;0.10;0.10;;;;;;;17.35;36.88;98641.91;16128907;19;129626;-64
2023/01/17 04:30:32;;;;;;;1.38;0.15;;;;;;;17.33;37.14;98646.91;16130345;19;129463;-59
2023/01/17 04:35:54;;;;;;;0.10;0.10;;;;;;;17.33;37.29;98652.44;16127787;19;130870;-61
2023/01/17 04:41:16;;;;;;;1.55;0.10;;;;;;;17.32;37.13;98651.59;16125356;19;130886;-56
2023/01/17 04:46:37;;;;;;;0.40;0.20;;;;;;;17.30;37.28;98653.81;16127104;19;129326;-58
2023/01/17 04:51:59;;;;;;;0.55;0.10;;;;;;;17.28;37.23;98655.25;16126129;19;129277;-60
2023/01/17 04:57:21;;;;;;;0.38;0.20;;;;;;;17.27;37.16;98653.59;16125143;19;129288;-58
2023/01/17 05:02:43;;;;;;;0.50;0.20;;;;;;;17.24;37.04;98644.78;16124341;19;131425;-59
2023/01/17 05:08:04;;;;;;;0.77;0.10;;;;;;;17.23;37.35;98643.13;16125843;19;129905;-60
2023/01/17 05:13:26;;;;;;;0.43;0.10;;;;;;;17.22;37.04;98647.03;16127502;19;130792;-62
2023/01/17 05:18:52;;;;;;;0.25;0.10;;;;;;;17.23;36.98;98645.06;16125171;19;131170;-61
2023/01/17 05:24:14;;;;;;;0.63;0.10;;;;;;;17.20;37.22;98657.53;16123791;19;129472;-47
2023/01/17 05:29:35;;;;;;;0.40;0.20;;;;;;;17.18;37.15;98657.00;16124605;19;129946;-48
2023/01/17 05:34:57;;;;;;;0.40;0.30;;;;;;;17.18;37.18;98661.69;16121957;19;129564;-47
2023/01/17 05:40:22;;;;;;;0.68;0.20;;;;;;;17.17;37.21;98660.88;16120798;19;129339;-49
2023/01/17 05:45:47;;;;;;;0.47;0.35;;;;;;;17.17;37.18;98658.13;16124720;19;130031;-48
2023/01/17 05:51:09;;;;;;;1.20;0.20;;;;;;;17.15;37.48;98659.53;16125053;19;130472;-50
2023/01/17 05:56:30;;;;;;;0.30;0.20;;;;;;;17.14;37.38;98658.69;16119537;19;130269;-47
2023/01/17 06:01:53;;;;;;;0.98;0.08;;;;;;;17.12;37.09;98668.41;16122237;19;130012;-50
2023/01/17 06:07:14;;;;;;;0.30;0.10;;;;;;;17.11;37.13;98662.03;16112608;19;130069;-50
2023/01/17 06:12:36;;;;;;;0.60;0.20;;;;;;;17.11;37.06;98661.22;16122921;19;129458;-54
2023/01/17 06:18:10;;;;;;;0.95;0.30;;;;;;;17.11;37.49;98659.28;16118589;19;129470;-48
2023/01/17 06:23:31;;;;;;;0.10;0.10;;;;;;;17.10;37.11;98656.81;16110084;19;130188;-48
2023/01/17 06:28:53;;;;;;;0.35;0.20;;;;;;;17.08;37.04;98662.63;16119668;19;129618;-48
2023/01/17 06:34:15;;;;;;;0.20;0.10;;;;;;;17.07;37.59;98656.28;16120551;19;129910;-48
2023/01/17 06:39:37;;;;;;;1.63;0.28;;;;;;;17.07;37.09;98672.03;16120209;19;129835;-46
2023/01/17 06:44:58;;;;;;;1.23;0.20;;;;;;;17.05;37.45;98660.44;16120041;19;130172;-47
2023/01/17 06:50:20;;;;;;;0.80;0.20;;;;;;;17.05;37.75;98663.22;16102490;19;131715;-50
2023/01/17 06:55:42;;;;;;;0.30;0.20;;;;;;;17.04;37.36;98661.56;16120461;19;129137;-49
2023/01/17 07:01:06;;;;;;;2.17;0.30;;;;;;;17.04;37.59;98653.28;16118680;19;129021;-48
2023/01/17 07:06:28;;;;;;;1.92;0.50;;;;;;;17.02;37.66;98658.25;16115825;19;130625;-47
2023/01/17 07:11:51;;;;;;;1.48;0.40;;;;;;;17.01;37.39;98668.50;16130246;19;130152;-45
2023/01/17 07:17:13;;;;;;;3.30;0.45;;;;;;;17.01;37.59;98659.38;16131492;19;129704;-45
2023/01/17 07:22:36;;;;;;;0.65;0.40;;;;;;;16.99;37.66;98654.16;16130959;19;130227;-45
2023/01/17 07:27:58;;;;;;;2.08;0.30;;;;;;;16.99;37.42;98650.56;16131256;19;129933;-45
2023/01/17 07:33:20;;;;;;;0.85;0.40;;;;;;;16.97;37.54;98652.81;16128827;19;131616;-46
2023/01/17 07:38:45;;;;;;;4.00;0.43;;;;;;;16.96;37.41;98649.19;16131732;19;129827;-46
2023/01/17 07:44:12;;;;;;;1.30;0.30;;;;;;;16.94;37.76;98662.47;16129349;19;129996;-49
2023/01/17 07:49:33;;;;;;;1.10;0.30;;;;;;;16.92;37.80;98664.72;16128768;19;129597;-49
2023/01/17 07:54:55;;;;;;;1.67;0.40;;;;;;;16.92;37.90;98660.00;16128203;19;130002;-45
2023/01/17 08:00:18;;;;;;;2.20;0.30;;;;;;;16.91;37.72;98674.13;16129152;19;129154;-46
2023/01/17 08:05:41;;;;;;;1.38;0.30;;;;;;;16.94;37.94;98673.53;16132355;19;130638;-47
2023/01/17 08:11:03;;;;;;;2.78;0.55;;;;;;;16.92;37.82;98679.34;16133338;19;131341;-45
2023/01/17 08:16:27;;;;;;;0.90;0.32;;;;;;;16.92;37.95;98682.09;16129763;19;133931;-46
2023/01/17 08:21:49;;;;;;;0.47;0.20;;;;;;;16.91;37.87;98680.47;16125497;19;130297;-46
2023/01/17 08:27:10;;;;;;;1.88;0.43;;;;;;;16.90;38.08;98681.56;16128795;19;129601;-47
2023/01/17 08:32:33;;;;;;;3.25;0.32;;;;;;;16.90;37.68;98684.34;16127713;19;129359;-46
2023/01/17 08:37:55;;;;;;;1.88;0.40;;;;;;;16.90;38.18;98678.00;16125046;19;129896;-45
2023/01/17 08:43:17;;;;;;;0.98;0.40;;;;;;;16.88;37.96;98674.69;16126955;19;130074;-46
2023/01/17 08:48:39;;;;;;;0.75;0.40;;;;;;;16.97;38.20;98688.72;16125748;19;129753;-45
2023/01/17 08:54:01;;;;;;;3.83;0.38;;;;;;;17.14;38.25;98688.28;16123687;19;129913;-47
2023/01/17 08:59:23;;;;;;;0.65;0.22;;;;;;;17.35;37.93;98688.91;16125008;19;130900;-48
2023/01/17 09:04:48;;;;;;;1.17;0.40;;;;;;;17.57;37.84;98684.81;16127520;19;129408;-47
2023/01/17 09:10:11;;;;;;;1.20;0.45;;;;;;;17.70;37.25;98695.19;16125009;19;128951;-48
2023/01/17 09:15:32;;;;;;;1.20;0.40;;;;;;;17.78;37.38;98697.28;16124983;19;129670;-47
2023/01/17 09:20:57;;;;;;;3.13;0.32;;;;;;;17.79;37.31;98703.63;16128011;19;130487;-48
2023/01/17 09:26:29;;;;;;;1.23;0.53;;;;;;;17.77;37.17;98695.63;16126946;19;129731;-46
2023/01/17 09:31:51;;;;;;;0.95;0.30;;;;;;;17.73;37.39;98697.34;16117237;19;129416;-47
2023/01/17 09:37:12;;;;;;;1.52;0.22;;;;;;;17.68;37.32;98711.25;16121193;19;129063;-47
2023/01/17 09:42:39;;;;;;;2.25;0.45;;;;;;;17.63;37.28;98714.03;16121594;19;129910;-47
2023/01/17 09:48:07;;;;;;;3.72;0.47;;;;;;;17.57;37.54;98713.28;16123799;19;130457;-49
2023/01/17 09:53:36;;;;;;;0.75;0.30;;;;;;;17.51;37.25;98725.50;16122840;19;130398;-47
2023/01/17 09:59:23;;;;;;;1.50;0.40;;;;;;;17.46;37.75;98731.91;16119847;19;129437;-47
2023/01/17 10:05:16;;;;;;;1.33;0.50;;;;;;;17.41;37.73;98737.47;16122691;19;129530;-47
2023/01/17 10:10:40;;;;;;;1.25;0.55;;;;;;;17.36;37.51;98734.75;16123383;19;129676;-49
2023/01/17 10:16:08;;;;;;;1.63;0.60;;;;;;;17.32;37.90;98751.09;16123998;19;129650;-46
2023/01/17 10:21:48;;;;;;;1.30;0.52;;;;;;;17.30;37.71;98745.03;16120247;19;130799;-46
2023/01/17 10:27:37;;;;;;;0.63;0.30;;;;;;;17.26;37.57;98756.94;16123675;19;129974;-47
2023/01/17 10:33:03;;;;;;;7.78;1.27;;;;;;;17.21;37.86;98750.38;16121660;19;129301;-46
2023/01/17 10:38:32;;;;;;;6.65;0.40;;;;;;;17.19;37.89;98746.25;16123385;19;132104;-46
2023/01/17 10:43:54;;;;;;;1.45;0.40;;;;;;;17.16;37.94;98758.69;16130523;19;129433;-48
2023/01/17 10:49:22;;;;;;;3.33;0.63;;;;;;;17.12;37.50;98760.38;16136573;19;130514;-45
2023/01/17 10:54:44;;;;;;;5.90;0.75;;;;;;;17.08;37.87;98751.03;16136526;19;129873;-49
2023/01/17 11:00:50;;;;;;;6.88;0.68;;;;;;;17.05;37.65;98749.66;16136303;19;129755;-45
2023/01/17 11:06:18;;;;;;;6.40;0.90;;;;;;;17.03;37.71;98742.78;16131736;19;129594;-48
2023/01/17 11:11:47;;;;;;;8.32;1.30;;;;;;;17.00;37.63;98740.59;16135108;19;129415;-46
2023/01/17 11:17:11;;;;;;;6.05;0.98;;;;;;;17.06;37.96;98740.25;16133143;19;130581;-47
2023/01/17 11:22:34;;;;;;;2.92;0.70;;;;;;;17.22;37.78;98727.16;16130987;19;129408;-45
2023/01/17 11:28:00;;;;;;;9.05;0.90;;;;;;;17.43;37.28;98724.19;16134004;19;129076;-46
2023/01/17 11:33:32;;;;;;;2.95;0.60;;;;;;;17.64;37.46;98732.28;16135997;19;130144;-54
2023/01/17 11:39:26;;;;;;;1.63;0.70;;;;;;;17.74;36.90;98726.63;16136652;19;130663;-50
2023/01/17 11:44:49;;;;;;;2.95;0.80;;;;;;;17.77;36.97;98723.28;16133824;19;130193;-51
2023/01/17 11:50:25;;;;;;;6.10;0.60;;;;;;;17.78;37.00;98727.72;16133370;19;129246;-53
2023/01/17 11:56:27;;;;;;;2.13;0.60;;;;;;;17.73;36.63;98713.94;16129642;19;130429;-46
2023/01/17 12:02:01;;;;;;;6.10;0.70;;;;;;;17.68;36.97;98708.47;16124715;19;131465;-52
2023/01/17 12:07:58;;;;;;;2.45;0.47;;;;;;;17.62;36.92;98707.72;16130307;19;129722;-52
2023/01/17 12:14:02;;;;;;;2.70;0.60;;;;;;;17.56;37.10;98695.03;16131762;19;129507;-52
2023/01/17 12:19:37;;;;;;;3.13;0.63;;;;;;;17.48;37.04;98692.91;16130620;19;130159;-51
2023/01/17 12:25:36;;;;;;;2.67;0.70;;;;;;;17.42;36.76;98681.06;16130613;19;128963;-47
2023/01/17 12:31:13;;;;;;;4.97;0.57;;;;;;;17.38;37.24;98680.00;16131214;19;129518;-50
2023/01/17 12:36:47;;;;;;;1.20;0.57;;;;;;;17.34;37.06;98676.19;16127776;19;129820;-46
2023/01/17 12:42:22;;;;;;;2.85;0.60;;;;;;;17.30;37.16;98683.41;16128969;19;129431;-47
2023/01/17 12:47:53;;;;;;;1.75;0.60;;;;;;;17.24;36.92;98672.41;16131455;19;129945;-46
2023/01/17 12:53:21;;;;;;;2.42;0.50;;;;;;;17.23;37.14;98681.81;16131814;19;129869;-45
2023/01/17 12:58:49;;;;;;;3.33;0.55;;;;;;;17.20;37.20;98678.81;16129628;19;129209;-47
2023/01/17 13:04:46;;;;;;;3.67;0.55;;;;;;;17.17;37.06;98677.47;16127814;19;129524;-45
2023/01/17 13:10:22;;;;;;;2.22;0.40;;;;;;;17.12;37.49;98674.75;16124792;19;129255;-47
2023/01/17 13:15:43;;;;;;;1.52;0.40;;;;;;;17.08;37.44;98668.97;16128626;19;129461;-48
2023/01/17 13:21:08;;;;;;;0.82;0.50;;;;;;;17.05;37.30;98652.16;16127080;19;129407;-45
2023/01/17 13:26:51;;;;;;;2.35;0.60;;;;;;;17.04;37.14;98653.28;16123118;19;130357;-46
2023/01/17 13:32:48;;;;;;;3.35;0.55;;;;;;;16.99;37.47;98643.09;16124936;19;129320;-47
2023/01/17 13:38:43;;;;;;;1.15;0.40;;;;;;;16.97;37.39;98652.81;16121611;19;131281;-48
2023/01/17 13:44:20;;;;;;;0.60;0.30;;;;;;;16.96;37.22;98654.72;16127048;19;129713;-46
2023/01/17 13:49:49;;;;;;;1.27;0.25;;;;;;;17.11;37.65;98666.75;16122168;19;129261;-46
2023/01/17 13:55:44;;;;;;;0.50;0.30;;;;;;;17.32;36.94;98668.19;16123874;19;129329;-46
2023/01/17 14:01:10;;;;;;;2.08;0.22;;;;;;;17.51;36.70;98659.97;16121752;19;130256;-47
2023/01/17 14:06:34;;;;;;;1.63;0.55;;;;;;;17.65;36.46;98670.34;16123656;19;129571;-47
2023/01/17 14:12:24;;;;;;;1.83;0.40;;;;;;;17.73;36.64;98675.22;16121443;19;129681;-45
2023/01/17 14:17:54;;;;;;;1.35;0.55;;;;;;;17.74;36.06;98667.75;16119579;19;129373;-47
2023/01/17 14:23:28;;;;;;;1.27;0.50;;;;;;;17.72;36.43;98672.75;16121794;19;129484;-46
2023/01/17 14:28:50;;;;;;;1.33;0.57;;;;;;;17.67;36.16;98668.13;16121467;19;129793;-45
2023/01/17 14:34:12;;;;;;;3.67;0.50;;;;;;;17.62;36.42;98676.44;16116071;19;130146;-45
2023/01/17 14:39:46;;;;;;;0.82;0.60;;;;;;;17.57;36.14;98673.78;16119589;19;129401;-46
2023/01/17 14:45:12;;;;;;;3.00;0.55;;;;;;;17.50;36.38;98688.72;16120831;19;129285;-47
2023/01/17 14:50:36;;;;;;;1.10;0.50;;;;;;;17.46;36.62;98709.78;16117007;19;130067;-49
2023/01/17 14:56:12;;;;;;;1.00;0.60;;;;;;;17.40;36.54;98702.66;16119065;19;129260;-47
2023/01/17 15:01:35;;;;;;;;;;;;;;;17.33;36.31;98707.72;16119280;19;129293;-48
2023/01/17 15:06:58;;;;;;;2.58;0.70;;;;;;;17.30;36.78;98703.56;16119026;19;129155;-45
2023/01/17 15:12:20;;;;;;;1.65;0.30;;;;;;;17.24;36.94;98708.31;16119423;19;130183;-50
2023/01/17 15:17:42;;;;;;;2.05;0.60;;;;;;;17.21;36.82;98721.91;16121123;19;129772;-48
2023/01/17 15:23:04;;;;;;;1.08;0.45;;;;;;;17.18;36.83;98726.09;16119924;19;129356;-47
2023/01/17 15:28:27;;;;;;;1.38;0.40;;;;;;;17.14;36.79;98727.78;16116618;19;132365;-46
2023/01/17 15:33:54;;;;;;;1.85;0.60;;;;;;;17.11;36.55;98733.88;16131857;19;130783;-46
2023/01/17 15:39:32;;;;;;;3.65;0.60;;;;;;;17.08;36.61;98740.00;16131303;19;130353;-49
2023/01/17 15:44:58;;;;;;;1.80;0.50;;;;;;;17.04;37.01;98738.91;16130186;19;129515;-45
2023/01/17 15:50:22;;;;;;;2.35;0.60;;;;;;;17.00;36.87;98732.31;16127579;19;129938;-47
2023/01/17 15:55:46;;;;;;;2.33;0.60;;;;;;;16.96;37.10;98725.72;16130594;19;129273;-47
2023/01/17 16:01:16;;;;;;;1.52;0.52;;;;;;;16.95;37.06;98724.06;16131559;19;129365;-46
2023/01/17 16:06:47;;;;;;;2.50;0.60;;;;;;;16.91;37.16;98727.41;16130979;19;129698;-45
2023/01/17 16:12:09;;;;;;;3.67;0.60;;;;;;;16.99;36.83;98736.19;16132794;19;130597;-45
2023/01/17 16:17:31;;;;;;;1.75;0.50;;;;;;;17.13;36.60;98737.16;16129153;19;130848;-48
2023/01/17 16:22:53;;;;;;;0.50;0.30;;;;;;;17.32;36.22;98739.22;16130099;19;128876;-46
2023/01/17 16:28:15;;;;;;;2.60;0.50;;;;;;;17.48;36.07;98740.72;16129569;19;129879;-45
2023/01/17 16:33:38;;;;;;;0.95;0.60;;;;;;;17.58;36.10;98755.59;16130549;19;129696;-47
2023/01/17 16:38:59;;;;;;;2.45;0.93;;;;;;;17.61;35.84;98757.75;16129871;19;131878;-47
2023/01/17 16:44:21;;;;;;;2.42;0.70;;;;;;;17.59;35.73;98751.72;16129170;19;130631;-45
2023/01/17 16:49:43;;;;;;;7.78;0.68;;;;;;;17.57;35.88;98762.25;16127405;19;129652;-49
2023/01/17 16:55:08;;;;;;;4.80;0.90;;;;;;;17.53;35.43;98773.84;16130992;19;129982;-48
2023/01/17 17:00:30;;;;;;;3.42;0.70;;;;;;;17.49;35.51;98770.00;16132219;19;129955;-48
2023/01/17 17:05:58;;;;;;;6.40;1.00;;;;;;;17.47;35.45;98783.31;16148041;19;130795;-48
2023/01/17 17:11:24;;;;;;;4.22;0.88;;;;;;;17.42;35.72;98780.59;16170129;19;129232;-50
2023/01/17 17:16:46;;;;;;;4.95;1.10;;;;;;;17.35;35.77;98777.34;16175875;19;133502;-50
2023/01/17 17:22:08;;;;;;;5.20;1.10;;;;;;;17.33;36.15;98782.34;16176030;19;129212;-46
2023/01/17 17:27:30;;;;;;;3.28;1.02;;;;;;;17.27;35.95;98789.84;16174794;19;129206;-50
2023/01/17 17:32:51;;;;;;;3.95;1.05;;;;;;;17.22;35.76;98801.78;16169161;19;130213;-46
2023/01/17 17:38:13;;;;;;;3.15;0.85;;;;;;;17.28;35.84;98804.47;16167988;19;129138;-49
2023/01/17 17:43:36;;;;;;;4.22;0.90;;;;;;;17.66;35.59;98801.94;16169001;19;129965;-46
2023/01/17 17:48:58;;;;;;;2.35;0.95;;;;;;;18.22;34.95;98816.28;16170712;19;129611;-45
2023/01/17 17:54:21;;;;;;;2.40;1.05;;;;;;;18.76;34.21;98817.84;16166082;19;130812;-52
2023/01/17 17:59:42;;;;;;;16.52;2.25;;;;;;;19.17;34.04;98829.44;16177478;19;130076;-51
2023/01/17 18:05:04;;;;;;;12.88;2.00;;;;;;;19.35;33.92;98836.13;16165219;19;129954;-51
2023/01/17 18:10:27;;;;;;;14.35;2.17;;;;;;;19.43;33.81;98837.38;16135134;19;129619;-55
2023/01/17 18:15:49;;;;;;;13.27;1.95;;;;;;;19.49;34.07;98847.25;16203419;19;128741;-61
2023/01/17 18:21:13;;;;;;;14.27;1.92;;;;;;;19.69;33.67;98855.22;16198654;19;129012;-59
2023/01/17 18:26:38;;;;;;;18.47;2.47;;;;;;;19.83;33.96;98857.19;16198752;19;129256;-61
2023/01/17 18:31:59;;;;;;;6.22;2.00;;;;;;;19.91;33.75;98864.84;16202165;19;128544;-59
2023/01/17 18:37:22;;;;;;;10.95;1.73;;;;;;;19.89;33.86;98878.19;16183977;19;128995;-58
2023/01/17 18:42:43;;;;;;;11.15;1.88;;;;;;;19.83;33.80;98879.38;16196048;19;128989;-58
2023/01/17 18:48:05;;;;;;;13.27;1.83;;;;;;;19.68;34.18;98886.03;16186249;19;128950;-58
2023/01/17 18:53:32;;;;;;;11.48;1.85;;;;;;;19.53;34.29;98889.91;16193251;19;129114;-59
2023/01/17 18:58:54;;;;;;;12.07;1.85;;;;;;;19.45;34.51;98901.66;16196984;19;129114;-61
2023/01/17 19:04:17;;;;;;;12.07;2.13;;;;;;;19.48;34.79;98912.16;16198974;19;130252;-62
2023/01/17 19:09:39;;;;;;;11.77;2.55;;;;;;;19.53;34.71;98910.13;16216746;19;128641;-60
2023/01/17 19:15:01;;;;;;;7.07;1.85;;;;;;;19.60;34.51;98915.28;16214574;19;134357;-56
2023/01/17 19:20:23;;;;;;;9.40;2.25;;;;;;;19.66;34.35;98918.81;16202108;19;129176;-59
2023/01/17 19:25:45;;;;;;;6.68;1.80;;;;;;;19.69;34.49;98929.31;16219253;19;129635;-61
2023/01/17 19:31:08;;;;;;;11.85;2.00;;;;;;;19.68;34.35;98928.50;16218542;19;128450;-61
2023/01/17 19:36:33;;;;;;;9.93;1.80;;;;;;;19.77;34.38;98936.91;16216895;19;129168;-61
2023/01/17 19:41:55;;;;;;;4.68;1.30;;;;;;;20.07;34.10;98951.44;16216086;19;128278;-62
2023/01/17 19:47:16;;;;;;;7.53;1.83;;;;;;;20.46;33.85;98954.91;16215523;19;128504;-58
2023/01/17 19:52:38;;;;;;;7.60;2.47;;;;;;;20.72;33.25;98955.25;16203234;19;129102;-61
2023/01/17 19:58:00;;;;;;;5.72;2.67;;;;;;;20.84;32.45;98957.53;16213807;19;128475;-61
2023/01/17 20:03:22;;;;;;;11.52;2.95;;;;;;;20.96;32.53;98943.13;16207342;19;130498;-61
2023/01/17 20:08:44;;;;;;;11.13;3.03;;;;;;;21.09;32.27;98952.56;16198001;19;129035;-61
2023/01/17 20:14:05;;;;;;;7.38;2.35;;;;;;;21.26;32.50;98951.09;16183687;19;129625;-53
2023/01/17 20:19:27;;;;;;;6.78;2.30;;;;;;;21.28;32.16;98954.41;16184512;19;128828;-63
2023/01/17 20:24:49;;;;;;;8.80;2.28;;;;;;;21.17;32.56;98954.59;16187986;19;128659;-59
2023/01/17 20:30:11;;;;;;;12.75;2.55;;;;;;;20.99;32.80;98953.59;16204957;19;130980;-62
2023/01/17 20:35:40;;;;;;;10.45;3.50;;;;;;;20.74;32.62;98955.75;16201794;19;132660;-60
2023/01/17 20:41:02;;;;;;;9.60;2.70;;;;;;;20.55;32.98;98955.03;16190906;19;129741;-60
2023/01/17 20:46:26;;;;;;;14.38;3.17;;;;;;;20.37;33.60;98962.31;16199275;19;129170;-64
2023/01/17 20:51:48;;;;;;;18.88;2.60;;;;;;;20.18;33.85;98957.66;16198916;19;129370;-61
2023/01/17 20:57:10;;;;;;;9.25;2.42;;;;;;;20.03;34.30;98955.97;16190611;19;129358;-58
2023/01/17 21:02:32;;;;;;;7.57;2.22;;;;;;;19.90;34.65;98965.88;16177948;19;130946;-57
2023/01/17 21:07:54;;;;;;;15.13;2.83;;;;;;;19.77;34.71;98952.75;16193161;19;129050;-48
2023/01/17 21:13:16;;;;;;;10.48;2.50;;;;;;;19.64;34.65;98960.72;16198809;19;128562;-60
2023/01/17 21:18:38;;;;;;;8.93;2.50;;;;;;;19.53;34.80;98953.69;16200739;19;128921;-52
2023/01/17 21:23:59;;;;;;;11.88;2.40;;;;;;;19.43;35.03;98959.38;16191992;19;130460;-57
2023/01/17 21:29:27;;;;;;;7.95;2.00;;;;;;;19.34;35.21;98968.34;16195211;19;131199;-59
2023/01/17 21:34:51;;;;;;;4.53;1.80;;;;;;;19.28;35.60;98974.28;16204711;19;129405;-61
2023/01/17 21:40:13;;;;;;;6.93;2.10;;;;;;;19.17;35.63;98976.34;16197058;19;129611;-64
2023/01/17 21:45:36;;;;;;;8.80;2.63;;;;;;;19.11;35.62;98983.06;16206702;19;128294;-57
2023/01/17 21:51:06;;;;;;;10.18;2.17;;;;;;;19.05;35.75;98979.53;16206662;19;130173;-60
2023/01/17 22:02:09;;;;;;;11.63;2.55;;;;;;;18.93;36.11;98996.59;16207695;19;131724;-63
2023/01/17 22:07:31;;;;;;;7.47;2.60;;;;;;;18.83;35.75;99002.25;16208093;19;130377;-63
2023/01/17 22:12:53;;;;;;;8.75;1.98;;;;;;;18.73;36.08;98998.47;16207467;19;128131;-63
2023/01/17 22:18:14;;;;;;;8.63;2.10;;;;;;;18.65;35.99;99009.34;16206102;19;128738;-63
2023/01/17 22:23:37;;;;;;;7.35;2.00;;;;;;;18.56;35.89;99012.78;16205846;19;130022;-63
2023/01/17 22:29:01;;;;;;;5.63;1.98;;;;;;;18.49;36.03;99014.22;16206009;19;129606;-62
2023/01/17 22:34:22;;;;;;;5.40;1.80;;;;;;;18.41;36.17;99011.00;16202760;19;128178;-60
2023/01/17 22:39:44;;;;;;;6.63;1.90;;;;;;;18.34;36.14;99024.31;16208743;19;128332;-63
2023/01/17 22:45:06;;;;;;;9.55;2.08;;;;;;;18.27;36.54;99029.34;16220109;19;129202;-63
2023/01/17 22:50:28;;;;;;;4.03;1.92;;;;;;;18.21;36.38;99025.00;16217938;19;130032;-63
2023/01/17 22:56:04;;;;;;;3.92;2.20;;;;;;;18.17;36.17;99019.19;16218796;19;128853;-63
2023/01/17 23:01:31;;;;;;;3.95;1.80;;;;;;;18.10;36.16;99025.06;16215922;19;129650;-62
2023/01/17 23:06:53;;;;;;;3.05;1.60;;;;;;;18.05;36.56;99027.88;16214707;19;130230;-62
2023/01/17 23:12:15;;;;;;;4.03;1.40;;;;;;;17.99;36.48;99024.34;16215073;19;130260;-63
2023/01/17 23:23:16;;;;;;;3.20;1.80;;;;;;;17.90;36.67;99025.22;16217558;19;129568;-63
2023/01/17 23:28:38;;;;;;;3.58;1.63;;;;;;;17.86;36.45;99016.69;16216124;19;129192;-62
2023/01/17 23:34:00;;;;;;;7.03;1.98;;;;;;;17.83;36.47;99020.03;16217301;19;129674;-63
2023/01/17 23:39:21;;;;;;;2.67;1.60;;;;;;;17.79;36.76;99018.94;16216321;19;128176;-62
2023/01/17 23:44:43;;;;;;;5.38;1.70;;;;;;;17.76;36.65;99025.88;16216679;19;128548;-63
2023/01/17 23:50:05;;;;;;;5.03;2.13;;;;;;;17.72;36.56;99023.97;16214809;19;130052;-63
2023/01/17 23:55:27;;;;;;;3.40;1.98;;;;;;;17.68;36.41;99018.19;16214666;19;128147;-62
